KEHY

Elk Mountain

Elk Mountain, Wyoming, USA
METAR KEHY 161615Z AUTO 24028G39KT 10SM CLR 03/M11 A2998 RMK AO2 PWINO
Observed Flight Rules
Nov-16 @ 16:15 UTC (30 minutes ago) Visual Flight Rules
Wind Visibility Clouds
240° at 28 knots
 Gusting to 39 knots
10 miles
  • Clear skies
Temperatures Readings
Current 3°C / 37°F
Dewpoint -11°C / 12°F
Humidity 35%
Altimeter 29.98" Hg
Pressure 1015 hPa
Elevation 2225
METAR KEHY 161615Z AUTO 24028G39KT 10SM CLR 03/M11 A2998 RMK AO2 PWINO
Observed Flight Rules
Nov-16 @ 16:15 UTC
(30 minutes ago)
VFR
Wind Visibility
240° at 28 knots
 Gusting to 39 knots
10 miles
Clouds
  • Clear skies
Temperature Dewpoint
3°C / 37°F -11°C / 12°F
Humidity Altimeter Pressure
35% 29.98" Hg 1015 hPa